Ringsted, Denmark
Current Conditions -  °F | °C
As of 7:50 PM on Tuesday 27 Jan 2015 (Local Time) from EKRK Reporting Station
Clear Clear  
Wind Chill: 25°   Ceiling: Unl
Heat Index: 32°   Visibility: 6mi
Dew Point: 30°   Wind: 8mph
Humidity: 93%   Direction: 290°WNW
Pressure: 29.94"   Gusts: NA
Location:  55.44°N, 11.79°E
Report Text: EKRK 271850Z AUTO 29007KT 9999NDV NCD M00/M01 Q1014 R88/710171
Loading
Personal Weather Stations






























Interactive Weather Map New forecast layout! Learn more

10-Day Weather Forecast

Advertisements
Track Severe Weather on mobile